createdAt,value
2019-03-31T00:01:07.679Z,6.89
2019-03-31T00:01:55.458Z,6.89
2019-03-31T00:02:54.473Z,6.85
2019-03-31T00:03:54.436Z,6.81
2019-03-31T00:04:54.425Z,6.80
2019-03-31T00:05:54.415Z,6.81
2019-03-31T00:06:54.403Z,6.81
2019-03-31T00:07:54.415Z,6.87
2019-03-31T00:08:54.394Z,6.80
2019-03-31T00:09:54.405Z,6.77
2019-03-31T00:10:54.358Z,6.76
2019-03-31T00:11:54.347Z,6.73
2019-03-31T00:12:54.336Z,6.77
2019-03-31T00:13:54.325Z,6.76
2019-03-31T00:14:54.346Z,6.79
2019-03-31T00:15:54.308Z,6.80
2019-03-31T00:16:54.298Z,6.76
2019-03-31T00:17:54.284Z,6.79
2019-03-31T00:18:54.270Z,6.74
2019-03-31T00:19:54.287Z,6.85
2019-03-31T00:20:54.246Z,6.84
2019-03-31T00:21:54.274Z,6.80
2019-03-31T00:22:54.248Z,6.84
2019-03-31T00:23:54.213Z,6.73
2019-03-31T00:24:54.205Z,6.81
2019-03-31T00:25:54.195Z,6.80
2019-03-31T00:26:54.178Z,6.80
2019-03-31T00:27:54.274Z,6.62
2019-03-31T00:28:54.159Z,6.64
2019-03-31T00:29:54.147Z,6.62
2019-03-31T00:30:54.134Z,6.51
2019-03-31T00:31:54.124Z,6.49
2019-03-31T00:32:54.138Z,6.59
2019-03-31T00:33:54.100Z,6.64
2019-03-31T00:34:54.119Z,6.67
2019-03-31T00:35:54.082Z,6.66
2019-03-31T00:36:54.103Z,6.66
2019-03-31T00:37:54.059Z,6.66
2019-03-31T00:38:54.046Z,6.64
2019-03-31T00:39:54.037Z,6.59
2019-03-31T00:40:54.021Z,6.62
2019-03-31T00:41:54.037Z,6.52
2019-03-31T00:42:54.010Z,6.46
2019-03-31T00:43:53.990Z,6.46
2019-03-31T00:44:53.980Z,6.48
2019-03-31T00:45:53.965Z,6.41
2019-03-31T00:46:53.983Z,6.38
2019-03-31T00:47:53.964Z,6.33
2019-03-31T00:48:53.931Z,6.27
2019-03-31T00:49:53.930Z,6.19
2019-03-31T00:50:53.913Z,6.18
2019-03-31T00:51:53.899Z,6.08
2019-03-31T00:52:53.921Z,6.04
2019-03-31T00:53:53.907Z,6.00
2019-03-31T00:54:53.870Z,6.00
2019-03-31T00:55:53.858Z,5.96
2019-03-31T00:56:53.844Z,5.97
2019-03-31T00:57:53.922Z,6.09
2019-03-31T00:58:53.826Z,6.00
2019-03-31T00:59:53.830Z,5.91
2019-03-31T01:00:53.799Z,5.86
2019-03-31T01:01:53.797Z,5.82
2019-03-31T01:02:53.775Z,5.78
2019-03-31T01:03:53.762Z,5.76
2019-03-31T01:04:53.811Z,5.79
2019-03-31T01:05:53.767Z,5.64
2019-03-31T01:06:53.757Z,5.75
2019-03-31T01:07:53.720Z,5.72
2019-03-31T01:08:53.707Z,5.72
2019-03-31T01:09:53.699Z,5.65
2019-03-31T01:10:53.714Z,5.61
2019-03-31T01:11:53.674Z,5.58
2019-03-31T01:12:53.686Z,5.63
2019-03-31T01:13:53.681Z,5.53
2019-03-31T01:14:53.641Z,5.48
2019-03-31T01:15:53.653Z,5.48
2019-03-31T01:16:53.620Z,5.45
2019-03-31T01:17:53.608Z,5.42
2019-03-31T01:18:53.598Z,5.38
2019-03-31T01:19:53.598Z,5.36
2019-03-31T01:20:53.607Z,5.38
2019-03-31T01:21:53.561Z,5.36
2019-03-31T01:22:53.564Z,5.33
2019-03-31T01:23:53.545Z,5.27
2019-03-31T01:24:53.549Z,5.28
2019-03-31T01:25:53.555Z,5.31
2019-03-31T01:26:53.507Z,5.31
2019-03-31T01:27:53.494Z,5.25
2019-03-31T01:28:53.524Z,5.21
2019-03-31T01:29:53.475Z,5.25
2019-03-31T01:30:53.480Z,5.27
2019-03-31T01:31:53.456Z,5.20
2019-03-31T01:32:53.463Z,5.15
2019-03-31T01:33:53.427Z,5.09
2019-03-31T01:34:53.454Z,5.21
2019-03-31T01:35:53.405Z,5.12
2019-03-31T01:36:53.395Z,5.10
2019-03-31T01:37:53.414Z,5.13
2019-03-31T01:38:53.397Z,5.02
2019-03-31T01:39:53.363Z,5.07
2019-03-31T01:40:53.384Z,5.00
2019-03-31T01:41:53.342Z,5.02
2019-03-31T01:42:53.352Z,4.97
2019-03-31T01:43:53.771Z,5.07
2019-03-31T01:44:53.309Z,5.03
2019-03-31T01:45:53.317Z,4.99
2019-03-31T01:46:53.285Z,4.99
2019-03-31T01:47:53.271Z,4.97
2019-03-31T01:48:53.261Z,5.00
2019-03-31T01:49:53.256Z,4.84
2019-03-31T01:50:53.270Z,4.88
2019-03-31T01:51:53.232Z,4.94
2019-03-31T01:52:53.222Z,4.82
2019-03-31T01:53:53.203Z,4.85
2019-03-31T01:54:53.210Z,4.82
2019-03-31T01:55:53.274Z,4.84
2019-03-31T01:56:53.174Z,4.73
2019-03-31T01:57:53.166Z,4.78
2019-03-31T01:58:53.165Z,4.78
2019-03-31T01:59:53.190Z,4.75
2019-03-31T02:00:53.125Z,4.78
2019-03-31T02:02:04.014Z,4.75
2019-03-31T02:02:54.102Z,4.72
2019-03-31T02:03:53.786Z,4.78
2019-03-31T02:04:53.129Z,4.73
2019-03-31T02:05:53.093Z,4.72
2019-03-31T02:06:53.059Z,4.75
2019-03-31T02:07:53.264Z,4.75
2019-03-31T02:08:53.034Z,4.80
2019-03-31T02:09:53.327Z,4.77
2019-03-31T02:10:53.014Z,4.75
2019-03-31T02:11:53.050Z,4.77
2019-03-31T02:12:53.000Z,4.66
2019-03-31T02:13:53.016Z,4.80
2019-03-31T02:14:52.969Z,4.89
2019-03-31T02:15:52.960Z,4.97
2019-03-31T02:16:52.946Z,4.99
2019-03-31T02:17:52.974Z,4.84
2019-03-31T02:18:52.951Z,4.91
2019-03-31T02:19:52.913Z,4.89
2019-03-31T02:20:52.902Z,4.86
2019-03-31T02:21:52.895Z,4.73
2019-03-31T02:22:52.887Z,4.78
2019-03-31T02:23:52.893Z,4.80
2019-03-31T02:24:52.855Z,4.80
2019-03-31T02:25:52.858Z,4.84
2019-03-31T02:26:52.835Z,4.89
2019-03-31T02:27:52.837Z,4.97
2019-03-31T02:28:52.809Z,4.96
2019-03-31T02:29:52.817Z,4.92
2019-03-31T02:30:52.814Z,5.00
2019-03-31T02:31:52.805Z,5.03
2019-03-31T02:32:52.771Z,5.00
2019-03-31T02:33:52.757Z,5.06
2019-03-31T02:34:52.746Z,5.00
2019-03-31T02:35:52.759Z,4.96
2019-03-31T02:36:52.730Z,5.02
2019-03-31T02:37:52.720Z,4.99
2019-03-31T02:38:52.709Z,4.96
2019-03-31T02:39:52.718Z,4.89
2019-03-31T02:40:52.678Z,4.82
2019-03-31T02:41:52.666Z,4.85
2019-03-31T02:42:52.715Z,4.75
2019-03-31T02:43:52.646Z,4.66
2019-03-31T02:44:52.655Z,4.66
2019-03-31T02:45:52.631Z,4.54
2019-03-31T02:46:52.610Z,4.54
2019-03-31T02:47:52.624Z,4.52
2019-03-31T02:48:52.589Z,4.54
2019-03-31T02:49:52.579Z,4.45
2019-03-31T02:50:52.581Z,4.47
2019-03-31T02:51:52.580Z,4.44
2019-03-31T02:52:52.544Z,4.44
2019-03-31T02:53:52.565Z,4.36
2019-03-31T02:54:52.549Z,4.32
2019-03-31T02:55:52.510Z,4.30
2019-03-31T02:56:52.504Z,4.29
2019-03-31T02:57:52.514Z,4.32
2019-03-31T02:58:52.482Z,4.27
2019-03-31T02:59:52.484Z,4.26
2019-03-31T03:00:52.457Z,4.27
2019-03-31T03:01:52.468Z,4.26
2019-03-31T03:02:52.430Z,4.29
2019-03-31T03:03:52.481Z,4.11
2019-03-31T03:04:52.543Z,4.12
2019-03-31T03:05:52.399Z,4.08
2019-03-31T03:06:52.401Z,4.06
2019-03-31T03:07:52.382Z,4.14
2019-03-31T03:08:52.390Z,4.09
2019-03-31T03:09:52.354Z,4.12
2019-03-31T03:10:52.418Z,4.04
2019-03-31T03:11:52.335Z,4.02
2019-03-31T03:12:52.347Z,4.04
2019-03-31T03:13:52.310Z,3.96
2019-03-31T03:14:52.313Z,3.93
2019-03-31T03:15:52.316Z,3.97
2019-03-31T03:16:52.279Z,4.02
2019-03-31T03:17:52.264Z,3.94
2019-03-31T03:18:52.252Z,4.00
2019-03-31T03:19:52.263Z,4.00
2019-03-31T03:20:52.238Z,3.98
2019-03-31T03:21:52.227Z,3.97
2019-03-31T03:22:52.207Z,4.02
2019-03-31T03:23:52.198Z,3.90
2019-03-31T03:24:52.215Z,3.94
2019-03-31T03:25:56.242Z,3.98
2019-03-31T03:26:52.172Z,3.90
2019-03-31T03:27:52.155Z,3.90
2019-03-31T03:28:52.144Z,3.96
2019-03-31T03:29:52.159Z,3.86
2019-03-31T03:30:52.206Z,3.87
2019-03-31T03:31:52.145Z,3.87
2019-03-31T03:33:13.527Z,3.86
2019-03-31T03:33:53.107Z,3.83
2019-03-31T03:34:52.095Z,3.86
2019-03-31T03:35:52.092Z,3.79
2019-03-31T03:36:52.082Z,3.88
2019-03-31T03:37:52.046Z,3.75
2019-03-31T03:38:52.028Z,3.70
2019-03-31T03:39:52.060Z,3.79
2019-03-31T03:40:52.013Z,3.66
2019-03-31T03:41:51.999Z,3.69
2019-03-31T03:42:51.985Z,3.75
2019-03-31T03:43:59.565Z,3.80
2019-03-31T03:44:53.003Z,3.75
2019-03-31T03:45:51.948Z,3.86
2019-03-31T03:46:51.962Z,3.96
2019-03-31T03:47:51.932Z,3.96
2019-03-31T03:48:51.967Z,3.87
2019-03-31T03:49:51.938Z,3.97
2019-03-31T03:50:51.900Z,3.93
2019-03-31T03:51:51.893Z,4.00
2019-03-31T03:52:51.872Z,3.96
2019-03-31T03:53:51.887Z,3.90
2019-03-31T03:54:51.882Z,3.91
2019-03-31T03:55:51.839Z,3.88
2019-03-31T03:56:51.827Z,3.78
2019-03-31T03:57:51.821Z,3.83
2019-03-31T03:58:51.805Z,3.79
2019-03-31T03:59:51.853Z,3.79
2019-03-31T04:00:51.808Z,3.83
2019-03-31T04:01:51.774Z,3.86
2019-03-31T04:02:51.765Z,3.75
2019-03-31T04:03:51.751Z,3.68
2019-03-31T04:04:51.783Z,3.66
2019-03-31T04:05:51.729Z,3.68
2019-03-31T04:06:51.736Z,3.73
2019-03-31T04:07:51.706Z,3.68
2019-03-31T04:08:51.711Z,3.58
2019-03-31T04:09:51.718Z,3.68
2019-03-31T04:10:51.672Z,3.72
2019-03-31T04:11:51.676Z,3.58
2019-03-31T04:12:51.652Z,3.65
2019-03-31T04:13:51.638Z,3.57
2019-03-31T04:14:51.658Z,3.65
2019-03-31T04:15:51.613Z,3.62
2019-03-31T04:16:51.603Z,3.62
2019-03-31T04:17:51.630Z,3.60
2019-03-31T04:18:51.598Z,3.62
2019-03-31T04:19:51.568Z,3.58
2019-03-31T04:20:51.559Z,3.60
2019-03-31T04:21:51.552Z,3.60
2019-03-31T04:22:51.559Z,3.55
2019-03-31T04:23:51.559Z,3.51
2019-03-31T04:24:51.521Z,3.61
2019-03-31T04:25:51.536Z,3.57
2019-03-31T04:26:51.497Z,3.58
2019-03-31T04:27:51.501Z,3.60
2019-03-31T04:28:51.470Z,3.47
2019-03-31T04:29:51.489Z,3.55
2019-03-31T04:30:51.447Z,3.51
2019-03-31T04:31:51.442Z,3.52
2019-03-31T04:32:51.430Z,3.58
2019-03-31T04:33:52.961Z,3.52
2019-03-31T04:34:51.428Z,3.61
2019-03-31T04:35:51.429Z,3.57
2019-03-31T04:36:51.392Z,3.65
2019-03-31T04:37:51.370Z,3.70
2019-03-31T04:38:51.366Z,3.70
2019-03-31T04:39:51.370Z,3.66
2019-03-31T04:40:51.333Z,3.70
2019-03-31T04:41:51.330Z,3.80
2019-03-31T04:42:51.316Z,3.79
2019-03-31T04:43:51.302Z,3.88
2019-03-31T04:44:51.313Z,3.86
2019-03-31T04:45:51.278Z,4.00
2019-03-31T04:46:51.286Z,4.00
2019-03-31T04:47:51.287Z,4.04
2019-03-31T04:48:51.248Z,3.98
2019-03-31T04:49:51.239Z,3.97
2019-03-31T04:50:52.214Z,4.14
2019-03-31T04:51:51.217Z,4.11
2019-03-31T04:52:51.223Z,4.05
2019-03-31T04:53:51.186Z,4.06
2019-03-31T04:54:51.178Z,4.20
2019-03-31T04:55:51.164Z,4.18
2019-03-31T04:56:51.176Z,4.29
2019-03-31T04:57:51.145Z,4.30
2019-03-31T04:58:51.159Z,4.32
2019-03-31T04:59:51.182Z,4.32
2019-03-31T05:00:51.119Z,4.47
2019-03-31T05:01:51.105Z,4.40
2019-03-31T05:02:51.089Z,4.48
2019-03-31T05:04:03.859Z,4.42
2019-03-31T05:04:52.068Z,4.48
2019-03-31T05:05:51.051Z,4.44
2019-03-31T05:06:51.077Z,4.50
2019-03-31T05:07:51.062Z,4.58
2019-03-31T05:08:51.025Z,4.58
2019-03-31T05:09:51.007Z,4.59
2019-03-31T05:10:51.003Z,4.54
2019-03-31T05:11:51.022Z,4.59
2019-03-31T05:12:50.991Z,4.69
2019-03-31T05:13:50.964Z,4.72
2019-03-31T05:14:50.954Z,4.73
2019-03-31T05:15:50.949Z,4.77
2019-03-31T05:16:50.963Z,4.73
2019-03-31T05:17:50.943Z,4.75
2019-03-31T05:18:50.908Z,4.80
2019-03-31T05:19:50.897Z,4.80
2019-03-31T05:20:50.910Z,4.85
2019-03-31T05:21:50.881Z,4.91
2019-03-31T05:22:52.820Z,4.86
2019-03-31T05:23:50.911Z,4.96
2019-03-31T05:24:50.849Z,4.99
2019-03-31T05:25:50.833Z,4.96
2019-03-31T05:26:50.847Z,5.00
2019-03-31T05:27:50.810Z,5.04
2019-03-31T05:28:50.803Z,5.00
2019-03-31T05:29:50.790Z,5.03
2019-03-31T05:30:50.805Z,5.00
2019-03-31T05:31:50.769Z,4.94
2019-03-31T05:32:50.750Z,5.02
2019-03-31T05:33:50.763Z,4.92
2019-03-31T05:34:50.728Z,4.94
2019-03-31T05:35:50.724Z,4.92
2019-03-31T05:36:50.743Z,4.96
2019-03-31T05:37:51.590Z,4.92
2019-03-31T05:38:50.686Z,4.96
2019-03-31T05:39:50.670Z,5.06
2019-03-31T05:40:50.660Z,4.91
2019-03-31T05:41:50.674Z,5.04
2019-03-31T05:42:50.641Z,5.06
2019-03-31T05:44:04.802Z,5.06
2019-03-31T05:44:51.641Z,5.06
2019-03-31T05:45:52.464Z,5.07
2019-03-31T05:46:50.593Z,5.07
2019-03-31T05:47:50.582Z,5.12
2019-03-31T05:48:50.604Z,5.10
2019-03-31T05:49:50.561Z,5.22
2019-03-31T05:50:50.555Z,5.31
2019-03-31T05:51:50.538Z,5.31
2019-03-31T05:52:50.526Z,5.25
2019-03-31T05:53:50.533Z,5.40
2019-03-31T05:54:50.508Z,5.40
2019-03-31T05:55:50.500Z,5.31
2019-03-31T05:56:50.481Z,5.49
2019-03-31T05:57:50.496Z,5.43
2019-03-31T05:58:50.483Z,5.48
2019-03-31T05:59:50.447Z,5.48
2019-03-31T06:00:50.440Z,5.49
2019-03-31T06:01:50.456Z,5.43
2019-03-31T06:02:50.418Z,5.53
2019-03-31T06:03:50.401Z,5.54
2019-03-31T06:04:50.391Z,5.48
2019-03-31T06:05:50.403Z,5.56
2019-03-31T06:06:50.372Z,5.61
2019-03-31T06:07:50.357Z,5.58
2019-03-31T06:08:50.351Z,5.58
2019-03-31T06:09:50.345Z,5.64
2019-03-31T06:10:50.393Z,5.63
2019-03-31T06:11:53.178Z,5.61
2019-03-31T06:12:50.328Z,5.63
2019-03-31T06:13:50.300Z,5.64
2019-03-31T06:14:50.283Z,5.76
2019-03-31T06:15:50.292Z,5.72
2019-03-31T06:16:50.258Z,5.75
2019-03-31T06:17:50.397Z,5.75
2019-03-31T06:18:50.243Z,5.82
2019-03-31T06:19:50.228Z,5.79
2019-03-31T06:20:50.378Z,5.81
2019-03-31T06:21:50.200Z,5.79
2019-03-31T06:22:50.189Z,5.86
2019-03-31T06:23:50.201Z,5.82
2019-03-31T06:24:50.172Z,5.96
2019-03-31T06:25:50.184Z,5.91
2019-03-31T06:26:50.151Z,5.89
2019-03-31T06:27:50.134Z,5.94
2019-03-31T06:28:50.188Z,5.91
2019-03-31T06:29:50.155Z,5.97
2019-03-31T06:30:50.102Z,5.99
2019-03-31T06:31:50.122Z,6.01
2019-03-31T06:32:50.079Z,6.11
2019-03-31T06:33:50.090Z,6.18
2019-03-31T06:34:50.092Z,6.06
2019-03-31T06:35:50.048Z,6.19
2019-03-31T06:36:50.032Z,6.18
2019-03-31T06:37:50.022Z,6.25
2019-03-31T06:38:50.009Z,6.30
2019-03-31T06:39:50.034Z,6.40
2019-03-31T06:40:49.991Z,6.34
2019-03-31T06:41:50.014Z,6.43
2019-03-31T06:42:49.967Z,6.51
2019-03-31T06:43:49.955Z,6.61
2019-03-31T06:44:49.945Z,6.71
2019-03-31T06:45:49.936Z,6.77
2019-03-31T06:46:49.955Z,6.77
2019-03-31T06:47:49.910Z,6.92
2019-03-31T06:48:49.901Z,6.99
2019-03-31T06:49:49.895Z,7.07
2019-03-31T06:50:49.877Z,7.20
2019-03-31T06:51:49.896Z,7.31
2019-03-31T06:52:49.872Z,7.42
2019-03-31T06:53:49.845Z,7.43
2019-03-31T06:54:49.848Z,7.49
2019-03-31T06:55:49.819Z,7.50
2019-03-31T06:56:49.809Z,7.49
2019-03-31T06:57:49.821Z,7.43
2019-03-31T06:58:49.796Z,7.60
2019-03-31T06:59:49.775Z,7.46
2019-03-31T07:00:49.766Z,7.50
2019-03-31T07:01:49.752Z,7.58
2019-03-31T07:02:49.771Z,7.50
2019-03-31T07:03:49.733Z,7.58
2019-03-31T07:05:00.496Z,7.46
2019-03-31T07:05:50.706Z,7.46
2019-03-31T07:06:49.697Z,7.50
2019-03-31T07:07:49.740Z,7.50
2019-03-31T07:08:49.678Z,7.49
2019-03-31T07:09:49.662Z,7.63
2019-03-31T07:10:49.688Z,7.48
2019-03-31T07:11:49.660Z,7.43
2019-03-31T07:12:49.629Z,7.40
2019-03-31T07:13:49.626Z,7.37
2019-03-31T07:14:49.606Z,7.40
2019-03-31T07:15:49.620Z,7.48
2019-03-31T07:16:49.613Z,7.48
2019-03-31T07:17:49.573Z,7.48
2019-03-31T07:18:49.561Z,7.42
2019-03-31T07:19:49.550Z,7.46
2019-03-31T07:20:49.564Z,7.48
2019-03-31T07:21:49.564Z,7.42
2019-03-31T07:22:49.533Z,7.43
2019-03-31T07:23:49.516Z,7.40
2019-03-31T07:24:49.495Z,7.46
2019-03-31T07:25:49.484Z,7.43
2019-03-31T07:26:49.495Z,7.45
2019-03-31T07:27:49.482Z,7.49
2019-03-31T07:28:49.451Z,7.50
2019-03-31T07:29:49.447Z,7.60
2019-03-31T07:30:49.451Z,7.69
2019-03-31T07:31:49.416Z,7.49
2019-03-31T07:32:49.431Z,7.57
2019-03-31T07:33:49.396Z,7.46
2019-03-31T07:34:49.382Z,7.57
2019-03-31T07:35:49.402Z,7.64
2019-03-31T07:36:49.365Z,7.67
2019-03-31T07:37:49.403Z,7.67
2019-03-31T07:38:49.449Z,7.64
2019-03-31T07:39:49.369Z,7.71
2019-03-31T07:40:49.718Z,7.75
2019-03-31T07:41:49.622Z,7.80
2019-03-31T07:42:51.006Z,7.77
2019-03-31T07:43:49.311Z,7.80
2019-03-31T07:44:49.271Z,7.86
2019-03-31T07:45:49.256Z,7.75
2019-03-31T07:46:49.247Z,7.93
2019-03-31T07:47:49.242Z,7.82
2019-03-31T07:48:49.246Z,7.67
2019-03-31T07:49:49.212Z,7.52
2019-03-31T07:50:49.201Z,7.53
2019-03-31T07:51:49.211Z,7.57
2019-03-31T07:52:49.178Z,7.57
2019-03-31T07:53:49.172Z,7.53
2019-03-31T07:54:49.240Z,7.49
2019-03-31T07:55:49.172Z,7.71
2019-03-31T07:56:49.134Z,7.63
2019-03-31T07:57:49.141Z,7.63
2019-03-31T07:58:49.109Z,7.67
2019-03-31T07:59:49.117Z,7.64
2019-03-31T08:00:49.117Z,7.64
2019-03-31T08:01:49.095Z,7.67
2019-03-31T08:02:49.066Z,7.46
2019-03-31T08:03:49.056Z,7.60
2019-03-31T08:04:49.042Z,7.64
2019-03-31T08:05:49.063Z,7.68
2019-03-31T08:06:49.020Z,7.68
2019-03-31T08:07:49.031Z,7.87
2019-03-31T08:08:49.000Z,7.87
2019-03-31T08:09:48.997Z,7.83
2019-03-31T08:10:48.998Z,7.93
2019-03-31T08:11:48.966Z,7.89
2019-03-31T08:12:48.974Z,7.97
2019-03-31T08:13:48.964Z,7.98
2019-03-31T08:14:48.930Z,7.97
2019-03-31T08:15:48.921Z,8.12
2019-03-31T08:16:48.915Z,8.20
2019-03-31T08:17:48.895Z,8.29
2019-03-31T08:18:48.906Z,8.41
2019-03-31T08:19:48.898Z,8.50
2019-03-31T08:20:48.862Z,8.50
2019-03-31T08:21:48.859Z,8.63
2019-03-31T08:22:48.862Z,8.77
2019-03-31T08:23:48.828Z,8.81
2019-03-31T08:24:48.833Z,8.73
2019-03-31T08:25:48.832Z,8.61
2019-03-31T08:26:48.794Z,8.81
2019-03-31T08:27:48.787Z,8.96
2019-03-31T08:28:48.825Z,8.86
2019-03-31T08:29:59.888Z,9.02
2019-03-31T08:30:49.774Z,9.01
2019-03-31T08:31:48.740Z,8.81
2019-03-31T08:32:48.763Z,8.95
2019-03-31T08:33:48.715Z,8.96
2019-03-31T08:34:48.709Z,8.92
2019-03-31T08:35:48.723Z,9.01
2019-03-31T08:36:48.687Z,9.18
2019-03-31T08:37:48.670Z,9.21
2019-03-31T08:38:48.659Z,9.13
2019-03-31T08:39:48.660Z,9.23
2019-03-31T08:40:48.677Z,9.24
2019-03-31T08:41:48.627Z,9.20
2019-03-31T08:42:48.623Z,9.17
2019-03-31T08:43:48.602Z,9.21
2019-03-31T08:44:48.595Z,9.35
2019-03-31T08:45:48.613Z,9.38
2019-03-31T08:46:48.568Z,9.39
2019-03-31T08:47:48.577Z,9.17
2019-03-31T08:48:48.569Z,9.15
2019-03-31T08:49:48.569Z,9.17
2019-03-31T08:50:48.569Z,9.02
2019-03-31T08:51:48.512Z,8.91
2019-03-31T08:52:48.508Z,8.94
2019-03-31T08:53:48.490Z,8.87
2019-03-31T08:54:48.507Z,8.95
2019-03-31T08:55:48.518Z,8.65
2019-03-31T08:56:48.468Z,8.77
2019-03-31T08:57:48.449Z,8.95
2019-03-31T08:58:48.472Z,8.76
2019-03-31T08:59:48.423Z,8.84
2019-03-31T09:00:48.410Z,8.84
2019-03-31T09:01:48.434Z,8.95
2019-03-31T09:02:48.423Z,8.96
2019-03-31T09:03:48.386Z,8.94
2019-03-31T09:04:48.373Z,9.23
2019-03-31T09:06:00.906Z,9.31
2019-03-31T09:06:49.407Z,9.29
2019-03-31T09:07:48.334Z,9.39
2019-03-31T09:08:48.320Z,9.38
2019-03-31T09:09:48.322Z,9.46
2019-03-31T09:10:48.328Z,9.53
2019-03-31T09:11:48.313Z,9.81
2019-03-31T09:12:48.757Z,9.79
2019-03-31T09:13:48.296Z,10.07
2019-03-31T09:14:48.256Z,10.20
2019-03-31T09:15:48.287Z,10.08
2019-03-31T09:16:48.234Z,10.14
2019-03-31T09:17:48.286Z,10.44
2019-03-31T09:18:48.217Z,10.64
2019-03-31T09:19:48.254Z,10.71
2019-03-31T09:20:48.211Z,10.86
2019-03-31T09:21:48.214Z,10.92
2019-03-31T09:22:48.180Z,11.04
2019-03-31T09:23:48.160Z,10.92
2019-03-31T09:24:48.162Z,10.70
2019-03-31T09:25:48.130Z,10.76
2019-03-31T09:26:48.174Z,11.02
2019-03-31T09:27:48.107Z,11.10
2019-03-31T09:28:48.151Z,11.24
2019-03-31T09:29:48.094Z,11.07
2019-03-31T09:30:48.078Z,10.82
2019-03-31T09:31:48.076Z,10.92
2019-03-31T09:32:48.059Z,10.99
2019-03-31T09:33:48.110Z,10.97
2019-03-31T09:34:48.031Z,10.88
2019-03-31T09:35:48.024Z,11.10
2019-03-31T09:36:48.003Z,11.36
2019-03-31T09:37:48.049Z,11.25
2019-03-31T09:38:48.595Z,11.33
2019-03-31T09:39:47.969Z,11.44
2019-03-31T09:40:47.990Z,11.37
2019-03-31T09:41:47.970Z,11.61
2019-03-31T09:42:47.937Z,11.58
2019-03-31T09:43:47.948Z,11.58
2019-03-31T09:44:47.915Z,11.76
2019-03-31T09:45:47.919Z,11.83
2019-03-31T09:46:47.890Z,11.35
2019-03-31T09:47:47.907Z,11.18
2019-03-31T09:48:47.871Z,11.29
2019-03-31T09:49:47.862Z,11.58
2019-03-31T09:50:47.846Z,11.86
2019-03-31T09:51:47.946Z,12.01
2019-03-31T09:52:47.889Z,11.60
2019-03-31T09:53:47.818Z,10.92
2019-03-31T09:54:47.801Z,10.97
2019-03-31T09:55:47.793Z,10.96
2019-03-31T09:56:47.778Z,11.19
2019-03-31T09:57:47.803Z,11.29
2019-03-31T09:58:47.777Z,11.35
2019-03-31T09:59:47.751Z,11.65
2019-03-31T10:00:47.734Z,11.94
2019-03-31T10:01:47.720Z,11.79
2019-03-31T10:02:47.710Z,11.58
2019-03-31T10:03:47.731Z,11.62
2019-03-31T10:04:47.686Z,11.37
2019-03-31T10:05:48.380Z,11.29
2019-03-31T10:06:47.663Z,11.22
2019-03-31T10:07:47.668Z,11.17
2019-03-31T10:08:47.668Z,11.18
2019-03-31T10:09:47.656Z,11.00
2019-03-31T10:10:47.645Z,10.55
2019-03-31T10:11:47.609Z,10.25
2019-03-31T10:12:47.619Z,10.30
2019-03-31T10:13:47.607Z,10.41
2019-03-31T10:14:47.574Z,10.63
2019-03-31T10:15:47.562Z,10.48
2019-03-31T10:16:47.560Z,10.48
2019-03-31T10:17:47.539Z,10.59
2019-03-31T10:18:47.553Z,10.59
2019-03-31T10:19:47.516Z,10.51
2019-03-31T10:20:47.507Z,10.48
2019-03-31T10:21:47.495Z,10.44
2019-03-31T10:22:47.526Z,10.48
2019-03-31T10:23:47.503Z,10.51
2019-03-31T10:24:47.459Z,10.48
2019-03-31T10:25:47.520Z,10.48
2019-03-31T10:26:47.439Z,10.53
2019-03-31T10:27:47.428Z,10.59
2019-03-31T10:28:47.449Z,10.45
2019-03-31T10:29:47.427Z,11.04
2019-03-31T10:30:47.430Z,11.37
2019-03-31T10:31:47.412Z,11.49
2019-03-31T10:32:47.370Z,11.49
2019-03-31T10:33:47.361Z,11.39
2019-03-31T10:34:47.348Z,11.28
2019-03-31T10:35:47.415Z,11.29
2019-03-31T10:36:47.349Z,11.28
2019-03-31T10:37:47.314Z,10.99
2019-03-31T10:38:47.308Z,10.84
2019-03-31T10:39:47.328Z,10.94
2019-03-31T10:40:47.283Z,11.07
2019-03-31T10:41:47.299Z,11.17
2019-03-31T10:42:47.257Z,11.42
2019-03-31T10:43:47.245Z,11.21
2019-03-31T10:44:47.268Z,10.86
2019-03-31T10:45:47.224Z,10.73
2019-03-31T10:46:47.212Z,10.86
2019-03-31T10:47:47.235Z,10.82
2019-03-31T10:48:47.189Z,10.88
2019-03-31T10:49:47.192Z,10.85
2019-03-31T10:50:47.169Z,10.70
2019-03-31T10:51:47.154Z,10.73
2019-03-31T10:52:47.252Z,10.99
2019-03-31T10:53:47.136Z,10.84
2019-03-31T10:54:47.121Z,10.96
2019-03-31T10:55:47.151Z,10.91
2019-03-31T10:56:47.263Z,10.89
2019-03-31T10:57:47.093Z,11.04
2019-03-31T10:58:47.124Z,10.92
2019-03-31T10:59:47.067Z,11.15
2019-03-31T11:00:47.052Z,11.15
2019-03-31T11:01:47.165Z,11.17
2019-03-31T11:02:47.042Z,10.92
2019-03-31T11:03:47.027Z,11.03
2019-03-31T11:04:47.008Z,11.27
2019-03-31T11:05:47.045Z,11.22
2019-03-31T11:06:58.452Z,11.36
2019-03-31T11:07:47.999Z,11.29
2019-03-31T11:08:46.965Z,11.37
2019-03-31T11:09:46.949Z,11.43
2019-03-31T11:10:46.974Z,11.40
2019-03-31T11:11:46.932Z,11.43
2019-03-31T11:12:46.917Z,11.52
2019-03-31T11:13:46.946Z,11.40
2019-03-31T11:14:46.893Z,11.24
2019-03-31T11:15:46.912Z,11.07
2019-03-31T11:16:46.872Z,11.03
2019-03-31T11:17:46.876Z,11.14
2019-03-31T11:18:46.847Z,11.03
2019-03-31T11:19:46.837Z,11.06
2019-03-31T11:20:46.848Z,11.00
2019-03-31T11:21:46.857Z,10.97
2019-03-31T11:22:46.807Z,10.70
2019-03-31T11:23:46.830Z,10.78
2019-03-31T11:24:46.787Z,10.60
2019-03-31T11:25:46.802Z,10.56
2019-03-31T11:26:46.788Z,10.36
2019-03-31T11:27:46.748Z,10.30
2019-03-31T11:28:46.742Z,10.26
2019-03-31T11:29:46.759Z,10.41
2019-03-31T11:30:46.729Z,10.30
2019-03-31T11:31:46.743Z,10.38
2019-03-31T11:32:46.701Z,10.45
2019-03-31T11:33:46.678Z,10.56
2019-03-31T11:34:46.679Z,10.55
2019-03-31T11:35:46.673Z,10.32
2019-03-31T11:36:46.644Z,10.32
2019-03-31T11:37:46.666Z,10.38
2019-03-31T11:38:46.645Z,10.41
2019-03-31T11:39:46.611Z,10.45
2019-03-31T11:40:46.600Z,10.52
2019-03-31T11:41:46.588Z,10.44
2019-03-31T11:42:46.603Z,10.51
2019-03-31T11:43:46.591Z,10.53
2019-03-31T11:44:46.558Z,10.40
2019-03-31T11:45:46.565Z,10.51
2019-03-31T11:46:46.535Z,10.64
2019-03-31T11:47:46.566Z,10.56
2019-03-31T11:48:46.517Z,10.74
2019-03-31T11:49:46.500Z,10.74
2019-03-31T11:50:46.488Z,10.61
2019-03-31T11:51:46.475Z,10.60
2019-03-31T11:52:46.502Z,10.53
2019-03-31T11:53:46.456Z,10.53
2019-03-31T11:54:46.447Z,10.68
2019-03-31T11:55:46.436Z,10.74
2019-03-31T11:56:46.420Z,10.76
2019-03-31T11:57:46.432Z,10.86
2019-03-31T11:58:46.398Z,10.76
2019-03-31T11:59:49.521Z,10.60
2019-03-31T12:00:46.404Z,10.53
2019-03-31T12:01:46.363Z,10.61
2019-03-31T12:02:46.357Z,10.48
2019-03-31T12:03:46.366Z,10.48
2019-03-31T12:04:46.340Z,10.40
2019-03-31T12:05:46.325Z,10.42
2019-03-31T12:06:46.331Z,10.48
2019-03-31T12:07:47.486Z,10.59
2019-03-31T12:08:46.285Z,10.59
2019-03-31T12:09:46.274Z,10.78
2019-03-31T12:10:46.263Z,10.89
2019-03-31T12:11:46.340Z,10.79
2019-03-31T12:12:46.241Z,10.81
2019-03-31T12:13:46.228Z,11.02
2019-03-31T12:14:59.570Z,11.42
2019-03-31T12:15:47.229Z,11.37
2019-03-31T12:16:46.198Z,11.35
2019-03-31T12:17:46.186Z,11.25
2019-03-31T12:18:46.203Z,11.14
2019-03-31T12:19:48.705Z,10.91
2019-03-31T12:20:46.151Z,10.76
2019-03-31T12:21:46.142Z,10.73
2019-03-31T12:22:46.173Z,10.94
2019-03-31T12:23:46.155Z,11.27
2019-03-31T12:24:46.104Z,11.51
2019-03-31T12:25:46.094Z,11.54
2019-03-31T12:26:46.083Z,11.52
2019-03-31T12:27:46.113Z,11.43
2019-03-31T12:28:46.058Z,11.52
2019-03-31T12:29:46.055Z,11.60
2019-03-31T12:30:46.037Z,11.52
2019-03-31T12:31:46.028Z,11.37
2019-03-31T12:32:46.037Z,11.18
2019-03-31T12:33:46.001Z,11.07
2019-03-31T12:34:46.023Z,11.19
2019-03-31T12:35:45.992Z,11.25
2019-03-31T12:36:45.970Z,11.35
2019-03-31T12:37:45.956Z,11.35
2019-03-31T12:38:46.026Z,11.37
2019-03-31T12:39:45.937Z,11.29
2019-03-31T12:40:45.932Z,11.21
2019-03-31T12:41:45.910Z,11.21
2019-03-31T12:42:45.961Z,11.10
2019-03-31T12:43:45.888Z,11.22
2019-03-31T12:44:45.878Z,11.35
2019-03-31T12:45:45.870Z,11.22
2019-03-31T12:46:45.930Z,11.17
2019-03-31T12:47:45.856Z,11.02
2019-03-31T12:48:45.856Z,10.85
2019-03-31T12:49:45.837Z,10.88
2019-03-31T12:50:45.813Z,11.06
2019-03-31T12:51:45.873Z,11.07
2019-03-31T12:52:47.464Z,11.17
2019-03-31T12:53:45.780Z,10.99
2019-03-31T12:54:45.765Z,11.04
2019-03-31T12:55:59.211Z,11.03
2019-03-31T12:56:46.748Z,10.99
2019-03-31T12:57:45.729Z,10.91
2019-03-31T12:58:45.762Z,10.82
2019-03-31T12:59:45.734Z,11.04
2019-03-31T13:00:45.694Z,11.04
2019-03-31T13:01:45.683Z,11.24
2019-03-31T13:02:45.678Z,11.22
2019-03-31T13:03:45.691Z,11.06
2019-03-31T13:04:45.677Z,11.07
2019-03-31T13:05:45.638Z,11.17
2019-03-31T13:06:45.626Z,11.18
2019-03-31T13:07:56.151Z,11.27
2019-03-31T13:08:46.625Z,11.28
2019-03-31T13:09:45.593Z,11.57
2019-03-31T13:10:45.587Z,11.67